Flight Track Log - Related Links

Times and Time Zones

All times are in EDT time to prevent confusion due to time zone crossing. See the EJA658 flight status page for this flight to view local times or setup timezone preferences in your user account.

Time Position Orientation Groundspeed Altitude Reporting Facility
EDT Latitude Longitude Course Direction KTS MPH feet Rate Location/Type
Mon 09:07:54 AM 39.8833 -75.2167 79° East 147 169 700  Level Philadelphia TRACON
Mon 09:08:13 AM 39.8869 -75.1925 79° East 163 188 1,700 3,385 Climbing FAA TRACON SMA TRACON (SMA)
Mon 09:08:33 AM 39.8931 -75.1731 68° East 178 205 2,900 3,692 Climbing FAA TRACON SMA TRACON (SMA)
Mon 09:08:52 AM 39.8997 -75.1522 67° East 201 231 4,100 3,750 Climbing FAA TRACON SMA TRACON (SMA)
Mon 09:09:13 AM 39.9161 -75.1322 43° Northeast 234 269 5,400 4,098 Climbing FAA TRACON SMA TRACON (SMA)
Mon 09:09:33 AM 39.9389 -75.1328 359° North 245 282 6,900 4,050 Climbing FAA TRACON SMA TRACON (SMA)
Mon 09:09:53 AM 39.9597 -75.1386 348° North 260 299 8,100 4,200 Climbing FAA TRACON SMA TRACON (SMA)
Mon 09:10:13 AM 39.9886 -75.1450 350° North 272 313 9,700 2,850 Climbing FAA TRACON SMA TRACON (SMA)
Mon 09:10:33 AM 40.0131 -75.1572 339° North 320 368 10,000 462 Climbing FAA TRACON SMA TRACON (SMA)
Mon 09:10:52 AM 40.0319 -75.1828 314° West 328 377 10,000  Level FAA TRACON SMA TRACON (SMA)
Mon 09:11:12 AM 40.0383 -75.2281 280° West 337 388 10,000  Level FAA TRACON SMA TRACON (SMA)
Mon 09:11:32 AM 40.0306 -75.2636 254° West 333 383 10,000  Level FAA TRACON SMA TRACON (SMA)
Mon 09:11:52 AM 40.0233 -75.2992 255° West 329 379 10,000  Level FAA TRACON SMA TRACON (SMA)
Mon 09:12:12 AM 40.0114 -75.3419 250° West 329 379 10,000  Level FAA TRACON SMA TRACON (SMA)
Mon 09:12:32 AM 40.0019 -75.3750 250° West 332 382 10,000 300 Level FAA TRACON SMA TRACON (SMA)
Mon 09:12:52 AM 39.9919 -75.4106 250° West 328 377 10,200 1,200 Climbing FAA TRACON SMA TRACON (SMA)
Mon 09:13:12 AM 39.9797 -75.4525 249° West 323 372 10,800 1,650 Climbing FAA TRACON SMA TRACON (SMA)
Mon 09:13:32 AM 39.9706 -75.4861 250° West 325 374 11,300 1,500 Climbing FAA TRACON SMA TRACON (SMA)
Mon 09:13:52 AM 39.9608 -75.5203 250° West 325 374 11,800 1,050 Climbing FAA TRACON SMA TRACON (SMA)
Mon 09:14:12 AM 39.9489 -75.5633 250° West 330 380 12,000 300 Climbing FAA TRACON SMA TRACON (SMA)
Mon 09:14:32 AM 39.9386 -75.5953 247° West 332 382 12,000 900 Level FAA TRACON SMA TRACON (SMA)
Mon 09:14:52 AM 39.9289 -75.6322 251° West 334 384 12,600 2,700 Climbing FAA TRACON SMA TRACON (SMA)
Mon 09:15:12 AM 39.9192 -75.6794 255° West 344 396 13,800 3,300 Climbing FAA TRACON SMA TRACON (SMA)
Mon 09:15:32 AM 39.9172 -75.7172 266° West 337 388 14,800 2,927 Climbing FAA TRACON SMA TRACON (SMA)
Mon 09:15:53 AM 39.9181 -75.7539 272° West 342 394 15,800 3,000 Climbing FAA TRACON SMA TRACON (SMA)
Mon 09:16:12 AM 39.9153 -75.8019 266° West 337 388 16,800 1,846 Climbing FAA TRACON SMA TRACON (SMA)
Mon 09:16:32 AM 39.9144 -75.8408 268° West 345 397 17,000 300 Climbing FAA TRACON SMA TRACON (SMA)
Mon 09:16:52 AM 39.9139 -75.8803 269° West 351 404 17,000  Level FAA TRACON SMA TRACON (SMA)
Mon 09:17:12 AM 39.9128 -75.9297 268° West 352 405 17,000 150 Level FAA TRACON SMA TRACON (SMA)
Mon 09:17:32 AM 39.9122 -75.9686 269° West 351 404 17,100 750 Climbing FAA TRACON SMA TRACON (SMA)
Mon 09:17:52 AM 39.9125 -76.0058 271° West 353 406 17,500 1,050 Climbing FAA TRACON SMA TRACON (SMA)
Mon 09:18:12 AM 39.9094 -76.0442 264° West 351 404 17,800 2,231 Climbing FAA TRACON SMA TRACON (SMA)
Mon 09:19:53 AM 39.9089 -76.2567 270° West 356 410 22,000 1,575 Climbing New York Center
Mon 09:20:52 AM 39.9147 -76.3978 273° West 377 434 22,000  Level New York Center
Mon 09:21:53 AM 39.9203 -76.5392 273° West 390 449 22,000  Level New York Center
Mon 09:22:52 AM 39.9258 -76.6803 273° West 395 455 22,000  Level New York Center
Mon 09:23:53 AM 39.9314 -76.8161 273° West 389 448 22,000  Level New York Center
Mon 09:24:53 AM 39.9367 -76.9547 273° West 389 448 22,000  Level New York Center
Mon 09:25:53 AM 39.9400 -77.0931 272° West 389 448 22,000  Level New York Center
Mon 09:26:51 AM 39.9469 -77.2347 274° West 389 448 22,000  Level New York Center
Mon 09:27:53 AM 39.9517 -77.3733 273° West 389 448 22,000  Level New York Center
Mon 09:29:25 AM 39.9611 -77.5900 273° West 396 456 22,000  Level Cleveland Center
Mon 09:30:25 AM 39.9667 -77.7306 273° West 396 456 22,000  Level Cleveland Center
Mon 09:31:25 AM 39.9703 -77.8686 272° West 396 456 22,000  Level Cleveland Center
Mon 09:32:25 AM 39.9736 -78.0122 272° West 396 456 22,000  Level Cleveland Center
Mon 09:33:25 AM 39.9786 -78.1556 273° West 396 456 22,000 -650 Level Cleveland Center
Mon 09:34:25 AM 39.9797 -78.2964 271° West 396 456 20,700 -1,350 Descending Cleveland Center
Mon 09:35:25 AM 39.9844 -78.4344 273° West 396 456 19,300 -1,450 Descending Cleveland Center
Mon 09:36:25 AM 39.9889 -78.5697 272° West 386 444 17,800 -1,200 Descending Cleveland Center
Mon 09:37:25 AM 40.0017 -78.7022 277° West 380 437 16,900 -1,200 Descending Cleveland Center
Mon 09:38:25 AM 40.0203 -78.8317 281° West 375 432 15,400 -1,655 Descending Cleveland Center
Mon 09:38:52 AM 40.0297 -78.9047 280° West 357 411 14,500 -1,600 Descending Cleveland Center
Mon 09:39:25 AM 40.0514 -78.9503 302° West 362 417 13,800 -1,959 Descending Cleveland Center
Mon 09:39:41 AM 40.0603 -79.0017 283° West 356 410 12,900 -2,300 Descending Cleveland Center
Mon 09:40:25 AM 40.0842 -79.0717 294° West 356 410 11,500 -2,300 Descending Cleveland Center
Mon 09:40:41 AM 40.0953 -79.1175 288° West 350 403 10,600 -2,200 Descending Cleveland Center
Mon 09:41:25 AM 40.1211 -79.1847 297° West 356 410 9,300 -1,574 Descending Cleveland Center
Mon 09:41:42 AM 40.1342 -79.2281 292° West 325 374 9,000 -300 Descending Cleveland Center
Mon 09:42:25 AM 40.1494 -79.2819 290° West 327 376 9,000 -806 Level Cleveland Center
Mon 09:42:49 AM 40.1644 -79.3333 291° West 273 314 8,100 -2,100 Descending Cleveland Center
Mon 09:43:25 AM 40.1839 -79.3819 298° West 297 342 6,900 -2,100 Descending Cleveland Center
Mon 09:43:49 AM 40.1925 -79.4225 286° West 270 311 6,000 -1,800 Descending Cleveland Center
Mon 09:44:25 AM 40.2119 -79.4711 298° West 277 319 5,100 -625 Descending Cleveland Center
Mon 09:45:25 AM 40.2378 -79.5578 291° West 265 305 5,000 -50 Descending Cleveland Center
Mon 09:46:25 AM 40.2656 -79.6389 294° West 260 299 5,000 -450 Level Cleveland Center
Mon 09:47:25 AM 40.2933 -79.7203 294° West 249 287 4,100 -1,000 Descending Cleveland Center
Mon 09:48:25 AM 40.3042 -79.8072 279° West 244 281 3,000 -1,100 Descending Cleveland Center
Mon 09:50:00 AM 40.3500 -79.9167 323° Northwest  Level FlightAware Approximate
Mon 09:57:00 AM 40.3544 -79.9302 323° Northwest  Level Estimated
Mon 09:58:00 AM 40.3544 -79.9302 323° Northwest  Level Estimated
Mon 09:59:00 AM 40.3544 -79.9302 323° Northwest  Level Estimated

Login

Don't have an account? Register now (free) for customized features, flight alerts, and more!